Time;durP1;ratioP1;P1;durP2;ratioP2;P2;SDS_P1;SDS_P2;PMS_P1;PMS_P2;Temp;Humidity;BMP_temperature;BMP_pressure;BME280_temperature;BME280_humidity;BME280_pressure;Samples;Min_cycle;Max_cycle;Signal;HPM_P1;HPM_P2
2021/06/17 00:02:16;;;;;;;;;;;18.50;78.70;;;;;;5022836;28;87264;-53
2021/06/17 00:04:42;;;;;;;;;;;18.50;78.60;;;;;;5020775;28;87919;-53
2021/06/17 00:07:07;;;;;;;;;;;18.50;78.70;;;;;;5017970;28;89572;-53
2021/06/17 00:09:33;;;;;;;;;;;18.50;78.30;;;;;;5019318;28;87107;-54
2021/06/17 00:12:01;;;;;;;;;;;18.40;78.50;;;;;;5020644;28;87156;-53
2021/06/17 00:14:30;;;;;;;;;;;18.40;79.20;;;;;;5017810;28;89259;-52
2021/06/17 00:16:56;;;;;;;;;;;18.40;78.90;;;;;;5021543;28;86394;-52
2021/06/17 00:19:22;;;;;;;;;;;18.40;78.50;;;;;;5024063;28;88259;-52
2021/06/17 00:21:48;;;;;;;;;;;18.40;78.10;;;;;;5022046;28;87155;-55
2021/06/17 00:24:14;;;;;;;;;;;18.40;78.30;;;;;;5021166;28;89878;-52
2021/06/17 00:26:39;;;;;;;;;;;18.40;78.20;;;;;;5018253;28;88380;-52
2021/06/17 00:29:05;;;;;;;;;;;18.40;78.10;;;;;;5018651;28;87186;-52
2021/06/17 00:31:30;;;;;;;;;;;18.40;78.20;;;;;;5019817;28;89460;-51
2021/06/17 00:33:56;;;;;;;;;;;18.40;78.00;;;;;;5020768;28;87597;-52
2021/06/17 00:36:21;;;;;;;;;;;18.40;77.90;;;;;;5022379;28;87241;-54
2021/06/17 00:38:47;;;;;;;;;;;18.40;77.90;;;;;;5020596;28;87943;-50
2021/06/17 00:41:13;;;;;;;;;;;18.40;77.90;;;;;;5020940;28;87001;-52
2021/06/17 00:43:39;;;;;;;;;;;18.30;77.90;;;;;;5017878;28;87115;-53
2021/06/17 00:46:05;;;;;;;;;;;18.30;78.10;;;;;;5018310;28;88327;-53
2021/06/17 00:48:30;;;;;;;;;;;18.30;78.20;;;;;;5018956;28;88134;-51
2021/06/17 00:50:57;;;;;;;;;;;18.30;78.10;;;;;;5021067;28;88020;-52
2021/06/17 00:53:26;;;;;;;;;;;18.30;78.00;;;;;;5020614;28;87882;-52
2021/06/17 00:55:52;;;;;;;;;;;18.30;78.00;;;;;;5018659;28;87813;-54
2021/06/17 00:58:17;;;;;;;;;;;18.30;78.10;;;;;;5018083;28;87494;-53
2021/06/17 01:00:43;;;;;;;;;;;18.30;78.00;;;;;;5018660;28;87182;-51
2021/06/17 01:03:09;;;;;;;;;;;18.30;78.10;;;;;;5022778;28;87188;-53
2021/06/17 01:05:35;;;;;;;;;;;18.30;78.10;;;;;;5020666;28;88697;-51
2021/06/17 01:08:06;;;;;;;;;;;18.30;78.10;;;;;;5021108;28;87151;-51
2021/06/17 01:10:58;;;;;;;;;;;18.30;78.10;;;;;;5021234;28;87384;-56
2021/06/17 01:13:23;;;;;;;;;;;18.20;78.00;;;;;;4996480;28;89584;-51
2021/06/17 01:15:55;;;;;;;;;;;18.20;78.00;;;;;;5020118;28;87959;-52
2021/06/17 01:18:21;;;;;;;;;;;18.20;77.90;;;;;;5018634;28;88820;-51
2021/06/17 01:20:55;;;;;;;;;;;18.20;78.00;;;;;;5017846;28;88270;-51
2021/06/17 01:23:39;;;;;;;;;;;18.20;77.90;;;;;;5020288;28;87157;-54
2021/06/17 01:26:23;;;;;;;;;;;18.20;78.00;;;;;;5019719;28;87123;-54
2021/06/17 01:28:50;;;;;;;;;;;18.20;78.00;;;;;;5018196;28;87137;-54
2021/06/17 01:31:18;;;;;;;;;;;18.20;78.00;;;;;;5017981;28;87487;-52
2021/06/17 01:33:46;;;;;;;;;;;18.20;77.80;;;;;;5019525;28;88136;-51
2021/06/17 01:36:32;;;;;;;;;;;18.10;77.90;;;;;;5020343;28;87176;-52
2021/06/17 01:38:58;;;;;;;;;;;18.10;77.70;;;;;;5020205;28;88029;-54
2021/06/17 01:41:26;;;;;;;;;;;18.10;77.80;;;;;;5020021;28;91342;-51
2021/06/17 01:43:52;;;;;;;;;;;18.10;77.80;;;;;;5019921;28;87208;-53
2021/06/17 01:46:18;;;;;;;;;;;18.10;77.80;;;;;;5020262;28;87502;-50
2021/06/17 01:48:44;;;;;;;;;;;18.10;77.90;;;;;;5023355;28;87932;-52
2021/06/17 01:51:10;;;;;;;;;;;18.10;77.70;;;;;;5021111;28;87897;-52
2021/06/17 01:53:37;;;;;;;;;;;18.10;77.70;;;;;;5020965;28;87526;-52
2021/06/17 01:56:03;;;;;;;;;;;18.10;77.80;;;;;;5020652;28;86423;-51
2021/06/17 01:58:29;;;;;;;;;;;18.10;77.80;;;;;;5021396;28;87149;-52
2021/06/17 02:00:55;;;;;;;;;;;18.00;77.70;;;;;;5020022;28;89255;-53
2021/06/17 02:03:22;;;;;;;;;;;18.00;77.70;;;;;;5020338;28;88075;-54
2021/06/17 02:05:48;;;;;;;;;;;18.00;77.70;;;;;;5020688;28;88678;-53
2021/06/17 02:08:15;;;;;;;;;;;18.00;77.60;;;;;;5020240;28;87736;-54
2021/06/17 02:10:42;;;;;;;;;;;18.00;77.70;;;;;;5021921;28;87138;-52
2021/06/17 02:13:10;;;;;;;;;;;18.00;77.70;;;;;;5019069;28;87617;-53
2021/06/17 02:15:36;;;;;;;;;;;18.00;77.70;;;;;;5016307;28;87153;-51
2021/06/17 02:18:02;;;;;;;;;;;18.00;77.60;;;;;;5017075;28;88499;-51
2021/06/17 02:20:28;;;;;;;;;;;18.00;77.70;;;;;;5017678;28;86970;-51
2021/06/17 02:22:56;;;;;;;;;;;17.90;77.50;;;;;;5018433;28;87126;-51
2021/06/17 02:25:22;;;;;;;;;;;17.90;77.50;;;;;;5016472;28;87573;-51
2021/06/17 02:27:51;;;;;;;;;;;17.90;77.60;;;;;;5016299;28;89094;-51
2021/06/17 02:30:18;;;;;;;;;;;17.90;77.50;;;;;;5020881;28;87139;-51
2021/06/17 02:32:51;;;;;;;;;;;17.90;77.50;;;;;;5017514;28;88300;-52
2021/06/17 02:35:21;;;;;;;;;;;17.90;77.50;;;;;;5016306;28;87311;-54
2021/06/17 02:37:49;;;;;;;;;;;17.90;77.60;;;;;;5016318;28;88859;-51
2021/06/17 02:40:16;;;;;;;;;;;17.90;77.50;;;;;;5019590;28;87170;-51
2021/06/17 02:42:42;;;;;;;;;;;17.90;77.50;;;;;;5019066;28;87109;-51
2021/06/17 02:45:08;;;;;;;;;;;17.90;77.60;;;;;;5020454;28;87486;-53
2021/06/17 02:47:33;;;;;;;;;;;17.80;77.50;;;;;;5019472;28;89469;-55
2021/06/17 02:49:59;;;;;;;;;;;17.80;77.40;;;;;;5016581;28;88660;-51
2021/06/17 02:52:25;;;;;;;;;;;17.80;77.50;;;;;;5016640;28;88622;-51
2021/06/17 02:54:50;;;;;;;;;;;17.80;77.40;;;;;;5019288;28;87156;-52
2021/06/17 02:57:24;;;;;;;;;;;17.80;77.50;;;;;;5020148;28;87362;-51
2021/06/17 02:59:50;;;;;;;;;;;17.80;77.50;;;;;;5022314;28;88315;-52
2021/06/17 03:02:19;;;;;;;;;;;17.80;77.40;;;;;;5021331;28;88090;-53
2021/06/17 03:04:50;;;;;;;;;;;17.70;77.40;;;;;;5019559;28;87653;-52
2021/06/17 03:07:22;;;;;;;;;;;17.80;77.50;;;;;;5019953;28;87912;-51
2021/06/17 03:09:50;;;;;;;;;;;17.70;77.50;;;;;;5020862;28;86463;-52
2021/06/17 03:12:17;;;;;;;;;;;17.70;77.50;;;;;;5018280;28;88376;-51
2021/06/17 03:14:45;;;;;;;;;;;17.70;77.40;;;;;;5024780;28;90160;-51
2021/06/17 03:17:12;;;;;;;;;;;17.70;77.50;;;;;;5018304;28;88041;-51
2021/06/17 03:19:37;;;;;;;;;;;17.70;77.40;;;;;;5018378;28;89746;-51
2021/06/17 03:22:05;;;;;;;;;;;17.70;77.40;;;;;;5019991;28;87145;-53
2021/06/17 03:24:33;;;;;;;;;;;17.70;77.40;;;;;;5019861;28;87214;-50
2021/06/17 03:26:59;;;;;;;;;;;17.70;77.40;;;;;;5021304;28;87698;-52
2021/06/17 03:29:27;;;;;;;;;;;17.60;77.40;;;;;;5021852;28;87200;-53
2021/06/17 03:31:56;;;;;;;;;;;17.70;77.50;;;;;;5019435;28;88948;-52
2021/06/17 03:34:22;;;;;;;;;;;17.60;77.40;;;;;;5019541;28;87936;-50
2021/06/17 03:36:48;;;;;;;;;;;17.60;77.40;;;;;;5024232;28;88813;-52
2021/06/17 03:39:14;;;;;;;;;;;17.70;77.40;;;;;;5021429;28;87602;-51
2021/06/17 03:41:40;;;;;;;;;;;17.60;77.40;;;;;;5021270;28;88123;-52
2021/06/17 03:44:06;;;;;;;;;;;17.60;77.40;;;;;;5021179;28;89469;-52
2021/06/17 03:46:33;;;;;;;;;;;17.60;77.40;;;;;;5020307;28;89848;-53
2021/06/17 03:48:59;;;;;;;;;;;17.60;77.40;;;;;;5013038;28;192639;-53
2021/06/17 03:51:25;;;;;;;;;;;17.60;77.40;;;;;;5021475;28;87696;-52
2021/06/17 03:53:51;;;;;;;;;;;17.60;77.40;;;;;;5022167;28;87965;-52
2021/06/17 03:56:17;;;;;;;;;;;17.60;77.40;;;;;;5023216;28;88017;-53
2021/06/17 03:58:43;;;;;;;;;;;17.60;77.50;;;;;;5025958;28;87751;-55
2021/06/17 04:01:10;;;;;;;;;;;17.60;77.50;;;;;;5022609;28;87844;-52
2021/06/17 04:03:36;;;;;;;;;;;17.50;77.30;;;;;;5021352;28;89081;-53
2021/06/17 04:06:02;;;;;;;;;;;17.50;77.20;;;;;;5019900;28;89415;-52
2021/06/17 04:08:32;;;;;;;;;;;17.50;77.40;;;;;;5021210;28;87135;-55
2021/06/17 04:10:59;;;;;;;;;;;17.50;77.30;;;;;;5022756;28;87931;-52
2021/06/17 04:13:28;;;;;;;;;;;17.50;77.30;;;;;;5021898;28;88666;-52
2021/06/17 04:15:55;;;;;;;;;;;17.50;77.30;;;;;;5019631;28;87296;-51
2021/06/17 04:18:22;;;;;;;;;;;17.50;77.30;;;;;;5021636;28;87740;-52
2021/06/17 04:20:48;;;;;;;;;;;17.50;77.20;;;;;;5022941;28;88055;-51
2021/06/17 04:23:16;;;;;;;;;;;17.50;77.30;;;;;;5021628;28;87053;-51
2021/06/17 04:25:42;;;;;;;;;;;17.50;77.40;;;;;;5021462;28;88367;-55
2021/06/17 04:28:09;;;;;;;;;;;17.50;77.30;;;;;;5021704;28;87145;-51
2021/06/17 04:30:35;;;;;;;;;;;17.40;77.30;;;;;;5020356;28;88125;-52
2021/06/17 04:33:02;;;;;;;;;;;17.40;77.20;;;;;;5021408;28;88119;-52
2021/06/17 04:35:29;;;;;;;;;;;17.40;77.30;;;;;;5020603;28;87151;-52
2021/06/17 04:37:55;;;;;;;;;;;17.40;77.30;;;;;;5020475;28;89025;-52
2021/06/17 04:40:21;;;;;;;;;;;17.40;77.40;;;;;;5022457;28;89543;-53
2021/06/17 04:42:48;;;;;;;;;;;17.40;77.30;;;;;;5019732;28;87549;-53
2021/06/17 04:45:13;;;;;;;;;;;17.40;77.30;;;;;;5019450;28;88291;-52
2021/06/17 04:47:40;;;;;;;;;;;17.40;77.30;;;;;;5021102;28;86405;-51
2021/06/17 04:50:07;;;;;;;;;;;17.50;77.30;;;;;;5019124;28;87142;-55
2021/06/17 04:52:32;;;;;;;;;;;17.40;77.20;;;;;;5017239;28;88870;-52
2021/06/17 04:54:58;;;;;;;;;;;17.40;77.20;;;;;;5017969;28;88134;-51
2021/06/17 04:57:23;;;;;;;;;;;17.40;77.20;;;;;;5019537;28;87246;-51
2021/06/17 04:59:49;;;;;;;;;;;17.40;77.30;;;;;;5019413;28;87640;-50
2021/06/17 05:02:14;;;;;;;;;;;17.40;77.40;;;;;;5022768;28;87264;-51
2021/06/17 05:04:40;;;;;;;;;;;17.40;77.40;;;;;;5020059;28;88242;-52
2021/06/17 05:12:15;;;;;;;;;;;17.40;77.40;;;;;;5019612;28;86617;-51
2021/06/17 05:14:41;;;;;;;;;;;17.50;77.50;;;;;;5020477;28;87130;-50
2021/06/17 05:17:07;;;;;;;;;;;17.40;77.50;;;;;;5020529;28;87457;-51
2021/06/17 05:19:32;;;;;;;;;;;17.50;77.60;;;;;;5019280;28;90724;-51
2021/06/17 05:21:58;;;;;;;;;;;17.40;77.60;;;;;;5019898;28;89079;-51
2021/06/17 05:24:23;;;;;;;;;;;17.50;77.70;;;;;;5024259;28;87173;-51
2021/06/17 05:26:49;;;;;;;;;;;17.50;77.70;;;;;;5021502;28;87938;-51
2021/06/17 05:29:15;;;;;;;;;;;17.50;77.70;;;;;;5019949;28;88595;-51
2021/06/17 05:31:40;;;;;;;;;;;17.50;77.70;;;;;;5017948;28;89893;-53
2021/06/17 05:34:06;;;;;;;;;;;17.50;77.70;;;;;;5017048;28;87218;-51
2021/06/17 05:36:31;;;;;;;;;;;17.50;77.80;;;;;;5017772;28;87538;-51
2021/06/17 05:38:57;;;;;;;;;;;17.50;77.70;;;;;;5017997;28;88487;-50
2021/06/17 05:41:22;;;;;;;;;;;17.50;77.80;;;;;;5018441;28;87183;-52
2021/06/17 05:43:48;;;;;;;;;;;17.50;77.70;;;;;;5019059;28;88087;-51
2021/06/17 05:46:13;;;;;;;;;;;17.50;77.70;;;;;;5023134;28;88511;-51
2021/06/17 05:48:40;;;;;;;;;;;17.50;77.80;;;;;;5020957;28;87158;-51
2021/06/17 05:51:06;;;;;;;;;;;17.60;77.90;;;;;;5019170;28;89865;-51
2021/06/17 05:53:32;;;;;;;;;;;17.60;77.90;;;;;;5020552;28;87151;-51
2021/06/17 05:55:57;;;;;;;;;;;17.60;78.00;;;;;;5020352;28;89038;-52
2021/06/17 05:58:23;;;;;;;;;;;17.60;77.90;;;;;;5016728;28;88808;-50
2021/06/17 06:00:48;;;;;;;;;;;17.60;78.00;;;;;;5017942;28;86372;-51
2021/06/17 06:03:14;;;;;;;;;;;17.60;78.00;;;;;;5018535;28;88254;-51
2021/06/17 06:05:39;;;;;;;;;;;17.60;78.10;;;;;;5019320;28;88073;-51
2021/06/17 06:08:11;;;;;;;;;;;17.60;78.10;;;;;;5022078;28;88091;-51
2021/06/17 06:10:37;;;;;;;;;;;17.60;78.10;;;;;;5019294;28;89336;-52
2021/06/17 06:13:02;;;;;;;;;;;17.60;78.10;;;;;;5020524;28;87182;-54
2021/06/17 06:15:33;;;;;;;;;;;17.70;78.10;;;;;;5020897;28;88581;-50
2021/06/17 06:18:08;;;;;;;;;;;17.60;78.10;;;;;;5015893;28;89559;-52
2021/06/17 06:20:34;;;;;;;;;;;17.70;78.10;;;;;;5017132;28;87167;-51
2021/06/17 06:23:00;;;;;;;;;;;17.60;78.10;;;;;;5017797;28;89159;-52
2021/06/17 06:25:26;;;;;;;;;;;17.70;78.20;;;;;;5017471;28;87635;-52
2021/06/17 06:27:52;;;;;;;;;;;17.70;78.20;;;;;;5020499;28;87134;-51
2021/06/17 06:30:17;;;;;;;;;;;17.70;78.40;;;;;;5017464;28;89446;-51
2021/06/17 06:32:43;;;;;;;;;;;17.70;78.50;;;;;;5018197;28;88104;-51
2021/06/17 06:35:09;;;;;;;;;;;17.70;78.50;;;;;;5020283;28;88005;-52
2021/06/17 06:37:35;;;;;;;;;;;17.70;78.50;;;;;;5018767;28;88316;-53
2021/06/17 06:40:00;;;;;;;;;;;17.70;78.20;;;;;;5019764;28;87217;-52
2021/06/17 06:42:26;;;;;;;;;;;17.70;78.20;;;;;;5019965;28;88856;-52
2021/06/17 06:44:51;;;;;;;;;;;17.70;78.30;;;;;;5016211;28;88299;-51
2021/06/17 06:47:17;;;;;;;;;;;17.70;78.40;;;;;;5016785;28;87101;-51
2021/06/17 06:49:42;;;;;;;;;;;17.80;78.60;;;;;;5019185;28;87334;-52
2021/06/17 06:52:08;;;;;;;;;;;17.80;78.50;;;;;;5016401;28;87160;-51
2021/06/17 06:54:33;;;;;;;;;;;17.80;78.70;;;;;;5017700;28;88146;-51
2021/06/17 06:56:59;;;;;;;;;;;17.80;78.60;;;;;;5017675;28;89379;-51
2021/06/17 06:59:25;;;;;;;;;;;17.80;78.70;;;;;;5019001;28;87176;-53
2021/06/17 07:01:51;;;;;;;;;;;17.80;78.60;;;;;;5018263;28;87120;-50
2021/06/17 07:04:16;;;;;;;;;;;17.90;78.70;;;;;;5017186;28;89360;-51
2021/06/17 07:06:42;;;;;;;;;;;17.90;78.70;;;;;;5018601;28;87263;-51
2021/06/17 07:09:07;;;;;;;;;;;17.80;78.90;;;;;;5019881;28;87754;-51
2021/06/17 07:11:33;;;;;;;;;;;17.90;78.80;;;;;;5022561;28;88017;-51
2021/06/17 07:13:59;;;;;;;;;;;17.90;78.90;;;;;;5020388;28;88702;-54
2021/06/17 07:16:25;;;;;;;;;;;17.90;79.00;;;;;;5019535;28;89296;-52
2021/06/17 07:18:51;;;;;;;;;;;17.90;78.80;;;;;;5019893;28;88646;-51
2021/06/17 07:21:17;;;;;;;;;;;18.00;78.90;;;;;;5015983;28;88457;-50
2021/06/17 07:23:45;;;;;;;;;;;18.00;78.80;;;;;;5015141;28;89178;-52
2021/06/17 07:26:11;;;;;;;;;;;18.00;78.70;;;;;;5018092;28;87209;-53
2021/06/17 07:28:36;;;;;;;;;;;18.00;78.90;;;;;;5019145;28;87770;-52
2021/06/17 07:31:02;;;;;;;;;;;18.00;78.90;;;;;;5019239;28;88979;-52
2021/06/17 07:33:28;;;;;;;;;;;18.00;78.90;;;;;;5019540;28;88316;-51
2021/06/17 07:35:54;;;;;;;;;;;18.00;79.00;;;;;;5015190;28;87889;-51
2021/06/17 07:38:19;;;;;;;;;;;18.00;79.20;;;;;;5016872;28;86395;-51
2021/06/17 07:40:45;;;;;;;;;;;18.00;79.10;;;;;;5020451;28;87111;-51
2021/06/17 07:43:11;;;;;;;;;;;18.00;79.20;;;;;;5020203;28;88083;-52
2021/06/17 07:45:36;;;;;;;;;;;18.10;79.10;;;;;;5020673;28;88068;-53
2021/06/17 07:48:02;;;;;;;;;;;18.10;79.00;;;;;;5021927;28;89782;-51
2021/06/17 07:50:28;;;;;;;;;;;18.10;79.20;;;;;;5022393;28;89569;-53
2021/06/17 07:52:54;;;;;;;;;;;18.10;79.30;;;;;;5021916;28;88680;-51
2021/06/17 07:55:19;;;;;;;;;;;18.10;79.40;;;;;;5020882;28;87928;-51
2021/06/17 07:57:45;;;;;;;;;;;18.10;79.20;;;;;;5019488;28;87189;-51
2021/06/17 08:00:10;;;;;;;;;;;18.20;78.90;;;;;;5020624;28;87428;-51
2021/06/17 08:02:36;;;;;;;;;;;18.20;78.40;;;;;;5020318;28;89123;-53
2021/06/17 08:05:02;;;;;;;;;;;18.30;78.60;;;;;;5021419;28;87247;-52
2021/06/17 08:07:27;;;;;;;;;;;18.20;78.70;;;;;;5022332;28;88609;-55
2021/06/17 08:09:53;;;;;;;;;;;18.20;78.70;;;;;;5021138;28;90423;-51
2021/06/17 08:12:20;;;;;;;;;;;18.20;78.90;;;;;;5021290;28;87189;-52
2021/06/17 08:14:45;;;;;;;;;;;18.20;79.20;;;;;;5019004;28;89130;-54
2021/06/17 08:17:11;;;;;;;;;;;18.30;79.20;;;;;;5021108;28;87193;-51
2021/06/17 08:19:36;;;;;;;;;;;18.30;79.10;;;;;;5018732;28;87849;-52
2021/06/17 08:22:04;;;;;;;;;;;18.30;79.00;;;;;;5018962;28;89140;-52
2021/06/17 08:24:30;;;;;;;;;;;18.40;79.10;;;;;;5018160;28;87285;-53
2021/06/17 08:26:55;;;;;;;;;;;18.40;78.90;;;;;;5019140;28;87626;-51
2021/06/17 08:29:22;;;;;;;;;;;18.40;78.70;;;;;;5018938;28;88033;-51
2021/06/17 08:31:47;;;;;;;;;;;18.40;78.90;;;;;;5018126;28;87905;-52
2021/06/17 08:34:13;;;;;;;;;;;18.40;79.00;;;;;;5017860;28;89075;-51
2021/06/17 08:36:39;;;;;;;;;;;18.40;79.20;;;;;;5022101;28;88859;-53
2021/06/17 08:39:05;;;;;;;;;;;18.40;79.40;;;;;;5020202;28;87809;-50
2021/06/17 08:41:31;;;;;;;;;;;18.40;78.90;;;;;;5019676;28;89581;-51
2021/06/17 08:43:56;;;;;;;;;;;18.40;78.90;;;;;;5018479;28;87254;-53
2021/06/17 08:46:22;;;;;;;;;;;18.50;78.70;;;;;;5019786;28;87438;-52
2021/06/17 08:48:48;;;;;;;;;;;18.50;78.70;;;;;;5019155;28;88206;-51
2021/06/17 08:51:14;;;;;;;;;;;18.50;78.80;;;;;;5019328;28;86420;-51
2021/06/17 08:53:40;;;;;;;;;;;18.50;78.80;;;;;;5020647;28;87181;-51
2021/06/17 08:56:05;;;;;;;;;;;18.50;79.00;;;;;;5021391;28;89679;-53
2021/06/17 08:58:31;;;;;;;;;;;18.50;78.90;;;;;;5023348;28;88964;-51
2021/06/17 09:00:56;;;;;;;;;;;18.50;79.00;;;;;;5017723;28;88406;-51
2021/06/17 09:03:22;;;;;;;;;;;18.50;79.10;;;;;;5017484;28;87163;-51
2021/06/17 09:05:52;;;;;;;;;;;18.60;79.30;;;;;;5018360;28;87984;-52
2021/06/17 09:08:21;;;;;;;;;;;18.60;79.20;;;;;;5019100;28;88115;-51
2021/06/17 09:10:47;;;;;;;;;;;18.60;79.00;;;;;;5021648;28;87205;-55
2021/06/17 09:13:13;;;;;;;;;;;18.70;78.80;;;;;;5020370;28;88993;-51
2021/06/17 09:15:54;;;;;;;;;;;18.70;78.80;;;;;;5021780;28;87781;-53
2021/06/17 09:18:34;;;;;;;;;;;18.70;78.60;;;;;;5020417;28;87503;-51
2021/06/17 09:21:02;;;;;;;;;;;18.70;78.80;;;;;;5020379;28;89259;-52
2021/06/17 09:23:32;;;;;;;;;;;18.80;79.00;;;;;;5020639;28;89013;-50
2021/06/17 09:26:01;;;;;;;;;;;18.80;79.00;;;;;;5017227;28;87830;-52
2021/06/17 09:28:42;;;;;;;;;;;18.80;78.80;;;;;;5020933;28;88902;-52
2021/06/17 09:31:12;;;;;;;;;;;18.80;78.60;;;;;;5021677;28;87143;-54
2021/06/17 09:33:42;;;;;;;;;;;18.80;78.70;;;;;;5018361;28;89253;-51
2021/06/17 09:36:08;;;;;;;;;;;18.90;78.90;;;;;;5017261;28;89034;-51
2021/06/17 09:38:42;;;;;;;;;;;18.90;78.70;;;;;;5018875;28;87115;-52
2021/06/17 09:41:08;;;;;;;;;;;18.90;78.80;;;;;;5021141;28;87707;-51
2021/06/17 09:43:41;;;;;;;;;;;18.90;78.80;;;;;;5021830;28;89586;-51
2021/06/17 09:46:09;;;;;;;;;;;18.90;78.70;;;;;;5020128;28;89285;-51
2021/06/17 09:48:37;;;;;;;;;;;18.90;78.80;;;;;;5016465;28;90452;-52
2021/06/17 09:51:21;;;;;;;;;;;18.90;79.00;;;;;;5016339;28;88781;-51
2021/06/17 09:53:47;;;;;;;;;;;18.90;78.80;;;;;;5017936;28;89116;-51
2021/06/17 09:56:16;;;;;;;;;;;18.90;78.80;;;;;;5016728;28;89767;-53
2021/06/17 09:58:44;;;;;;;;;;;18.90;79.10;;;;;;5018425;28;87181;-53
2021/06/17 10:01:16;;;;;;;;;;;19.00;79.20;;;;;;5017333;28;89190;-51
2021/06/17 10:03:58;;;;;;;;;;;19.00;78.80;;;;;;5019695;28;89986;-52
2021/06/17 10:06:24;;;;;;;;;;;19.00;79.00;;;;;;5024550;28;86466;-52
2021/06/17 10:08:50;;;;;;;;;;;19.00;78.70;;;;;;5020238;28;88721;-51
2021/06/17 10:11:16;;;;;;;;;;;19.00;78.70;;;;;;5018366;28;87943;-53
2021/06/17 10:13:41;;;;;;;;;;;19.00;78.70;;;;;;5016228;28;88112;-51
2021/06/17 10:16:07;;;;;;;;;;;19.10;78.80;;;;;;5016084;28;89004;-51
2021/06/17 10:18:33;;;;;;;;;;;19.10;78.90;;;;;;5017510;28;87214;-52
2021/06/17 10:20:59;;;;;;;;;;;19.10;78.80;;;;;;5018375;28;87475;-50
2021/06/17 10:23:24;;;;;;;;;;;19.10;78.70;;;;;;5018814;28;87107;-51
2021/06/17 10:25:51;;;;;;;;;;;19.10;79.00;;;;;;5019966;28;87167;-53
2021/06/17 10:28:35;;;;;;;;;;;19.10;79.00;;;;;;5022967;28;87337;-55
2021/06/17 10:31:00;;;;;;;;;;;19.10;78.90;;;;;;5017064;28;86531;-52
2021/06/17 10:33:31;;;;;;;;;;;19.10;79.00;;;;;;5017190;28;87174;-52
2021/06/17 10:36:15;;;;;;;;;;;19.10;78.90;;;;;;5016909;28;89906;-51
2021/06/17 10:38:59;;;;;;;;;;;19.20;79.00;;;;;;5019846;28;88691;-51
2021/06/17 10:41:44;;;;;;;;;;;19.20;78.90;;;;;;5017833;28;88300;-53
2021/06/17 10:44:28;;;;;;;;;;;19.30;79.00;;;;;;5020000;28;89587;-51
2021/06/17 10:46:53;;;;;;;;;;;19.30;78.70;;;;;;5017471;28;87189;-51
2021/06/17 10:49:38;;;;;;;;;;;19.30;78.70;;;;;;5021239;28;87174;-50
2021/06/17 10:52:26;;;;;;;;;;;19.30;78.40;;;;;;5019319;28;87171;-53
2021/06/17 10:55:08;;;;;;;;;;;19.40;78.90;;;;;;5018079;28;88987;-51
2021/06/17 11:02:53;;;;;;;;;;;19.40;78.20;;;;;;5017932;28;88152;-51
2021/06/17 11:08:14;;;;;;;;;;;19.50;78.50;;;;;;5015882;28;88306;-50
2021/06/17 11:10:41;;;;;;;;;;;19.50;78.00;;;;;;5018479;28;89195;-51
2021/06/17 11:13:07;;;;;;;;;;;19.50;78.20;;;;;;5020408;28;88465;-51
2021/06/17 11:15:39;;;;;;;;;;;19.50;78.30;;;;;;5019889;28;87575;-53
2021/06/17 11:18:05;;;;;;;;;;;19.50;78.60;;;;;;5018774;28;88569;-51
2021/06/17 11:20:34;;;;;;;;;;;19.50;78.60;;;;;;5019928;28;87193;-51
2021/06/17 11:23:01;;;;;;;;;;;19.60;78.10;;;;;;5022475;28;86982;-50
2021/06/17 11:25:28;;;;;;;;;;;19.60;78.30;;;;;;5020332;28;89383;-51
2021/06/17 11:27:55;;;;;;;;;;;19.60;77.90;;;;;;5021083;28;87196;-51
2021/06/17 11:30:41;;;;;;;;;;;19.60;77.80;;;;;;5021245;28;89872;-51
2021/06/17 11:33:19;;;;;;;;;;;19.60;77.70;;;;;;5022724;28;89503;-54
2021/06/17 11:35:58;;;;;;;;;;;19.60;77.50;;;;;;5022485;28;87140;-51
2021/06/17 11:38:25;;;;;;;;;;;19.70;78.00;;;;;;5021078;28;88924;-52
2021/06/17 11:40:51;;;;;;;;;;;19.70;77.70;;;;;;5020096;28;87315;-51
2021/06/17 11:43:26;;;;;;;;;;;19.70;78.00;;;;;;5020794;28;87144;-52
2021/06/17 11:45:52;;;;;;;;;;;19.70;78.20;;;;;;5021901;28;88886;-52
2021/06/17 11:48:18;;;;;;;;;;;19.70;77.80;;;;;;5023061;28;86423;-54
2021/06/17 11:50:48;;;;;;;;;;;19.70;78.20;;;;;;5023621;28;87178;-52
2021/06/17 11:53:24;;;;;;;;;;;19.70;78.30;;;;;;5018771;28;89266;-53
2021/06/17 11:55:53;;;;;;;;;;;19.70;78.30;;;;;;5018238;28;88155;-53
2021/06/17 11:58:19;;;;;;;;;;;19.70;78.20;;;;;;5024506;28;88393;-51
2021/06/17 12:00:45;;;;;;;;;;;19.70;77.90;;;;;;5021930;28;87255;-52
2021/06/17 12:03:23;;;;;;;;;;;19.70;78.20;;;;;;5022603;28;87980;-52
2021/06/17 12:05:49;;;;;;;;;;;19.70;77.70;;;;;;5020387;28;89461;-52
2021/06/17 12:08:15;;;;;;;;;;;19.70;77.80;;;;;;5021462;28;87268;-52
2021/06/17 12:10:45;;;;;;;;;;;19.70;77.80;;;;;;5021059;28;88543;-51
2021/06/17 12:13:12;;;;;;;;;;;19.70;78.20;;;;;;5022000;28;87845;-51
2021/06/17 12:15:42;;;;;;;;;;;19.70;78.00;;;;;;5021293;28;87202;-52
2021/06/17 12:18:12;;;;;;;;;;;19.70;78.10;;;;;;5022546;28;87828;-51
2021/06/17 12:20:37;;;;;;;;;;;19.70;78.20;;;;;;5024467;28;89354;-54
2021/06/17 12:23:04;;;;;;;;;;;19.70;78.30;;;;;;5021597;28;88573;-54
2021/06/17 12:25:37;;;;;;;;;;;19.80;78.10;;;;;;5021683;28;88186;-52
2021/06/17 12:28:04;;;;;;;;;;;19.80;78.10;;;;;;5021002;28;87150;-52
2021/06/17 12:30:29;;;;;;;;;;;19.80;78.20;;;;;;5020385;28;87324;-51
2021/06/17 12:32:56;;;;;;;;;;;19.80;78.10;;;;;;5020162;28;89522;-52
2021/06/17 12:35:25;;;;;;;;;;;19.80;78.20;;;;;;5018722;28;87234;-53
2021/06/17 12:37:56;;;;;;;;;;;19.80;78.30;;;;;;5021486;28;88706;-52
2021/06/17 12:40:27;;;;;;;;;;;19.80;78.10;;;;;;5021732;28;90240;-55
2021/06/17 12:43:02;;;;;;;;;;;19.80;78.10;;;;;;5023710;28;87267;-53
2021/06/17 12:45:27;;;;;;;;;;;19.80;78.00;;;;;;5020519;28;90008;-52
2021/06/17 12:47:54;;;;;;;;;;;19.80;77.90;;;;;;5020246;28;88077;-51
2021/06/17 12:53:07;;;;;;;;;;;19.90;78.10;;;;;;5019714;28;87268;-50
2021/06/17 12:55:37;;;;;;;;;;;19.90;78.00;;;;;;5021276;28;87134;-53
2021/06/17 12:58:02;;;;;;;;;;;19.90;78.20;;;;;;5019585;28;88978;-51
2021/06/17 13:00:28;;;;;;;;;;;19.90;78.20;;;;;;5019051;28;88052;-53
2021/06/17 13:02:54;;;;;;;;;;;19.80;78.10;;;;;;5023715;28;88074;-52
2021/06/17 13:05:21;;;;;;;;;;;19.90;78.30;;;;;;5019996;28;89560;-52
2021/06/17 13:08:06;;;;;;;;;;;19.90;78.10;;;;;;5021925;28;87134;-51
2021/06/17 13:10:51;;;;;;;;;;;19.90;78.10;;;;;;5017780;28;89271;-51
2021/06/17 13:13:18;;;;;;;;;;;19.90;78.10;;;;;;5017689;28;89998;-52
2021/06/17 13:15:45;;;;;;;;;;;19.90;78.20;;;;;;5019629;28;87739;-51
2021/06/17 13:18:11;;;;;;;;;;;19.90;78.10;;;;;;5019211;28;88709;-50
2021/06/17 13:20:38;;;;;;;;;;;19.90;77.80;;;;;;5019211;28;89239;-52
2021/06/17 13:23:08;;;;;;;;;;;19.90;78.10;;;;;;5021731;28;87158;-51
2021/06/17 13:25:35;;;;;;;;;;;20.00;77.80;;;;;;5020084;28;89136;-51
2021/06/17 13:28:02;;;;;;;;;;;20.00;77.90;;;;;;5019597;28;87919;-51
2021/06/17 13:30:29;;;;;;;;;;;20.00;78.00;;;;;;5021138;28;87984;-53
2021/06/17 13:32:55;;;;;;;;;;;20.00;78.00;;;;;;5018990;28;88910;-51
2021/06/17 13:35:21;;;;;;;;;;;20.00;77.90;;;;;;5018350;28;88130;-51
2021/06/17 13:37:47;;;;;;;;;;;20.00;77.80;;;;;;5019609;28;87951;-51
2021/06/17 13:40:13;;;;;;;;;;;20.10;77.80;;;;;;5019697;28;89812;-51
2021/06/17 13:42:39;;;;;;;;;;;20.10;77.80;;;;;;5018987;28;87158;-52
2021/06/17 13:45:05;;;;;;;;;;;20.10;77.80;;;;;;5018524;28;88989;-51
2021/06/17 13:47:30;;;;;;;;;;;20.10;77.90;;;;;;5019985;28;89340;-51
2021/06/17 13:49:56;;;;;;;;;;;20.10;77.90;;;;;;5017538;28;87512;-52
2021/06/17 13:52:23;;;;;;;;;;;20.10;78.60;;;;;;5018954;28;87487;-50
2021/06/17 13:54:49;;;;;;;;;;;20.10;77.70;;;;;;5017289;28;88856;-52
2021/06/17 13:57:15;;;;;;;;;;;20.10;77.70;;;;;;5017501;28;88059;-52
2021/06/17 13:59:41;;;;;;;;;;;20.10;78.00;;;;;;5017456;28;89092;-50
2021/06/17 14:02:08;;;;;;;;;;;20.10;78.00;;;;;;5018475;28;88668;-51
2021/06/17 14:04:33;;;;;;;;;;;20.10;77.80;;;;;;5021158;28;88180;-52
2021/06/17 14:06:59;;;;;;;;;;;20.10;77.80;;;;;;5020417;28;89529;-51
2021/06/17 14:09:24;;;;;;;;;;;20.10;77.80;;;;;;5020408;28;88109;-51
2021/06/17 14:11:50;;;;;;;;;;;20.20;77.90;;;;;;5016134;28;87142;-52
2021/06/17 14:14:16;;;;;;;;;;;20.20;77.70;;;;;;5017974;28;88736;-52
2021/06/17 14:16:41;;;;;;;;;;;20.20;77.80;;;;;;5021488;28;87959;-52
2021/06/17 14:19:07;;;;;;;;;;;20.20;77.70;;;;;;5018256;28;89155;-51
2021/06/17 14:21:32;;;;;;;;;;;20.20;77.50;;;;;;5016074;28;87176;-51
2021/06/17 14:23:58;;;;;;;;;;;20.30;77.80;;;;;;5015613;28;88779;-52
2021/06/17 14:26:23;;;;;;;;;;;20.30;77.70;;;;;;5017051;28;88562;-51
2021/06/17 14:28:49;;;;;;;;;;;20.30;77.60;;;;;;5017916;28;87169;-51
2021/06/17 14:31:14;;;;;;;;;;;20.30;77.70;;;;;;5020833;28;88545;-52
2021/06/17 14:33:40;;;;;;;;;;;20.40;77.30;;;;;;5017763;28;87177;-50
2021/06/17 14:36:06;;;;;;;;;;;20.40;77.40;;;;;;5016772;28;87525;-52